createdAt,value
2019-06-15T00:00:30.356Z,18.80
2019-06-15T00:02:59.027Z,18.90
2019-06-15T00:05:27.763Z,18.90
2019-06-15T00:07:56.521Z,19.00
2019-06-15T00:10:25.226Z,19.00
2019-06-15T00:12:53.958Z,19.00
2019-06-15T00:15:22.728Z,18.90
2019-06-15T00:17:51.439Z,18.70
2019-06-15T00:20:20.166Z,18.70
2019-06-15T00:22:49.001Z,18.60
2019-06-15T00:25:17.715Z,18.70
2019-06-15T00:27:46.439Z,18.70
2019-06-15T00:30:15.827Z,18.70
2019-06-15T00:32:44.475Z,18.80
2019-06-15T00:35:13.907Z,18.70
2019-06-15T00:37:42.661Z,18.60
2019-06-15T00:40:11.412Z,18.50
2019-06-15T00:42:40.145Z,18.50
2019-06-15T00:45:09.345Z,18.70
2019-06-15T00:47:38.062Z,18.80
2019-06-15T00:50:07.289Z,19.00
2019-06-15T00:52:36.052Z,19.30
2019-06-15T00:55:06.419Z,19.80
2019-06-15T00:57:36.974Z,20.30
2019-06-15T01:00:08.388Z,21.00
2019-06-15T01:02:37.041Z,21.40
2019-06-15T01:05:06.667Z,21.50
2019-06-15T01:07:35.360Z,21.40
2019-06-15T01:10:06.213Z,21.20
2019-06-15T01:12:35.049Z,21.10
2019-06-15T01:15:05.273Z,21.00
2019-06-15T01:17:34.609Z,20.90
2019-06-15T01:20:04.840Z,20.80
2019-06-15T01:22:33.584Z,20.70
2019-06-15T01:25:05.552Z,20.60
2019-06-15T01:27:32.776Z,20.50
2019-06-15T01:30:01.467Z,20.30
2019-06-15T01:32:30.183Z,20.10
2019-06-15T01:34:58.914Z,19.80
2019-06-15T01:37:27.666Z,19.70
2019-06-15T01:39:56.378Z,19.60
2019-06-15T01:42:25.014Z,19.40
2019-06-15T01:44:53.788Z,19.40
2019-06-15T01:47:22.445Z,19.30
2019-06-15T01:49:51.187Z,19.20
2019-06-15T01:52:19.970Z,19.10
2019-06-15T01:54:48.623Z,19.00
2019-06-15T01:57:18.443Z,19.00
2019-06-15T01:59:47.132Z,19.00
2019-06-15T02:02:15.779Z,19.00
2019-06-15T02:04:44.422Z,18.90
2019-06-15T02:07:13.181Z,18.90
2019-06-15T02:09:41.840Z,18.90
2019-06-15T02:12:10.553Z,18.90
2019-06-15T02:14:39.242Z,18.80
2019-06-15T02:17:07.980Z,18.70
2019-06-15T02:19:36.754Z,18.60
2019-06-15T02:22:05.527Z,18.60
2019-06-15T02:24:34.319Z,18.50
2019-06-15T02:27:03.123Z,18.30
2019-06-15T02:29:31.752Z,18.20
2019-06-15T02:32:00.484Z,18.30
2019-06-15T02:34:29.151Z,18.40
2019-06-15T02:36:57.901Z,18.40
2019-06-15T02:39:26.609Z,18.30
2019-06-15T02:41:55.345Z,18.10
2019-06-15T02:44:24.089Z,18.10
2019-06-15T02:46:52.823Z,18.10
2019-06-15T02:49:21.485Z,18.10
2019-06-15T02:51:51.063Z,18.10
2019-06-15T02:54:19.784Z,18.10
2019-06-15T02:56:48.492Z,18.10
2019-06-15T02:59:17.252Z,18.00
2019-06-15T03:01:46.248Z,18.00
2019-06-15T03:04:14.998Z,18.00
2019-06-15T03:06:44.055Z,18.00
2019-06-15T03:09:12.807Z,18.10
2019-06-15T03:11:41.529Z,18.20
2019-06-15T03:14:10.305Z,18.20
2019-06-15T03:16:38.963Z,18.20
2019-06-15T03:19:07.723Z,18.10
2019-06-15T03:21:36.484Z,18.00
2019-06-15T03:24:05.941Z,18.00
2019-06-15T03:26:34.654Z,18.10
2019-06-15T03:29:03.379Z,18.10
2019-06-15T03:31:32.105Z,18.20
2019-06-15T03:34:00.821Z,18.30
2019-06-15T03:36:29.670Z,18.40
2019-06-15T03:38:58.400Z,18.50
2019-06-15T03:41:27.142Z,18.60
2019-06-15T03:43:55.745Z,18.70
2019-06-15T03:46:24.476Z,18.70
2019-06-15T03:48:53.230Z,18.70
2019-06-15T03:51:21.958Z,18.80
2019-06-15T03:53:50.584Z,18.90
2019-06-15T03:56:22.084Z,19.00
2019-06-15T03:58:49.662Z,19.00
2019-06-15T04:01:24.466Z,19.00
2019-06-15T04:03:53.106Z,19.10
2019-06-15T04:06:21.884Z,19.20
2019-06-15T04:08:50.531Z,19.20
2019-06-15T04:11:19.110Z,19.20
2019-06-15T04:13:47.733Z,19.20
2019-06-15T04:16:16.514Z,19.30
2019-06-15T04:18:45.180Z,19.30
2019-06-15T04:21:13.802Z,19.30
2019-06-15T04:23:42.490Z,19.30
2019-06-15T04:26:11.235Z,19.40
2019-06-15T04:28:39.908Z,19.40
2019-06-15T04:31:08.627Z,19.50
2019-06-15T04:33:37.286Z,19.50
2019-06-15T04:36:06.046Z,19.50
2019-06-15T04:38:34.838Z,19.50
2019-06-15T04:41:04.246Z,19.50
2019-06-15T04:43:33.017Z,19.50
2019-06-15T04:46:01.747Z,19.50
2019-06-15T04:48:30.466Z,19.60
2019-06-15T04:50:59.235Z,19.50
2019-06-15T04:53:27.980Z,19.60
2019-06-15T04:55:56.702Z,19.60
2019-06-15T04:58:25.502Z,19.70
2019-06-15T05:00:54.235Z,19.70
2019-06-15T05:03:23.051Z,19.70
2019-06-15T05:05:54.129Z,19.70
2019-06-15T05:08:22.862Z,19.60
2019-06-15T05:10:51.518Z,19.70
2019-06-15T05:13:20.219Z,19.60
2019-06-15T05:15:48.879Z,19.50
2019-06-15T05:18:17.652Z,19.40
2019-06-15T05:20:46.450Z,19.40
2019-06-15T05:23:15.183Z,19.50
2019-06-15T05:25:43.917Z,19.50
2019-06-15T05:28:12.606Z,19.50
2019-06-15T05:30:41.285Z,19.50
2019-06-15T05:33:10.001Z,19.60
2019-06-15T05:35:38.787Z,19.60
2019-06-15T05:38:07.496Z,19.70
2019-06-15T05:40:36.185Z,19.70
2019-06-15T05:43:05.041Z,19.70
2019-06-15T05:45:33.769Z,19.80
2019-06-15T05:48:02.489Z,19.80
2019-06-15T05:50:31.257Z,19.80
2019-06-15T05:52:59.979Z,19.80
2019-06-15T05:55:28.707Z,19.80
2019-06-15T05:57:57.409Z,19.90
2019-06-15T06:00:26.428Z,19.90
2019-06-15T06:02:55.114Z,20.00
2019-06-15T06:05:23.811Z,20.10
2019-06-15T06:07:54.560Z,20.30
2019-06-15T06:10:23.271Z,20.40
2019-06-15T06:12:52.103Z,20.80
2019-06-15T06:15:20.851Z,21.50
2019-06-15T06:17:49.550Z,22.30
2019-06-15T06:20:18.449Z,22.80
2019-06-15T06:22:47.172Z,22.90
2019-06-15T06:25:15.910Z,23.40
2019-06-15T06:27:44.727Z,23.70
2019-06-15T06:30:13.729Z,24.20
2019-06-15T06:32:42.462Z,24.50
2019-06-15T06:35:11.425Z,24.50
2019-06-15T06:37:40.160Z,24.70
2019-06-15T06:40:11.430Z,24.50
2019-06-15T06:42:40.173Z,24.40
2019-06-15T06:45:10.497Z,24.90
2019-06-15T06:47:39.221Z,25.30
2019-06-15T06:50:08.783Z,25.60
2019-06-15T06:52:37.511Z,25.80
2019-06-15T06:55:07.568Z,26.50
2019-06-15T06:57:50.807Z,26.90
2019-06-15T07:00:07.388Z,27.20
2019-06-15T07:02:36.135Z,27.40
2019-06-15T07:05:06.173Z,27.30
2019-06-15T07:07:35.039Z,27.30
2019-06-15T07:10:05.982Z,27.10
2019-06-15T07:12:34.775Z,26.70
2019-06-15T07:15:04.928Z,26.60
2019-06-15T07:17:33.788Z,26.40
2019-06-15T07:20:02.846Z,25.80
2019-06-15T07:22:31.512Z,25.40
2019-06-15T07:25:00.252Z,25.30
2019-06-15T07:27:29.323Z,24.80
2019-06-15T07:29:57.996Z,24.70
2019-06-15T07:32:26.758Z,25.10
2019-06-15T07:34:55.648Z,25.20
2019-06-15T07:37:24.416Z,25.60
2019-06-15T07:39:53.221Z,25.60
2019-06-15T07:42:22.007Z,25.70
2019-06-15T07:44:50.749Z,25.70
2019-06-15T07:47:19.658Z,25.10
2019-06-15T07:49:48.392Z,25.20
2019-06-15T07:52:17.138Z,25.10
2019-06-15T07:54:45.869Z,24.90
2019-06-15T07:57:14.646Z,24.50
2019-06-15T07:59:43.576Z,24.50
2019-06-15T08:02:12.393Z,24.70
2019-06-15T08:04:41.178Z,24.60
2019-06-15T08:07:09.919Z,24.80
2019-06-15T08:09:38.606Z,24.70
2019-06-15T08:12:07.358Z,24.60
2019-06-15T08:14:36.108Z,24.50
2019-06-15T08:17:04.846Z,24.80
2019-06-15T08:19:33.648Z,24.90
2019-06-15T08:22:02.352Z,24.60
2019-06-15T08:24:31.100Z,24.00
2019-06-15T08:26:59.764Z,23.50
2019-06-15T08:29:28.563Z,23.00
2019-06-15T08:31:57.299Z,22.70
2019-06-15T08:34:26.073Z,22.40
2019-06-15T08:36:54.900Z,22.20
2019-06-15T08:39:23.657Z,22.30
2019-06-15T08:41:56.952Z,22.30
2019-06-15T08:44:25.776Z,22.50
2019-06-15T08:46:54.591Z,22.50
2019-06-15T08:49:23.684Z,23.20
2019-06-15T08:51:55.797Z,24.00
2019-06-15T08:54:24.466Z,24.90
2019-06-15T08:56:53.243Z,25.30
2019-06-15T08:59:21.978Z,25.90
2019-06-15T09:01:50.786Z,26.20
2019-06-15T09:04:19.973Z,26.20
2019-06-15T09:06:48.767Z,26.40
2019-06-15T09:09:17.500Z,26.10
2019-06-15T09:11:46.293Z,26.40
2019-06-15T09:14:14.989Z,26.80
2019-06-15T09:16:43.748Z,26.90
2019-06-15T09:19:14.083Z,27.50
2019-06-15T09:21:42.786Z,27.70
2019-06-15T09:24:11.607Z,27.90
2019-06-15T09:26:40.275Z,27.70
2019-06-15T09:29:11.598Z,28.10
2019-06-15T09:31:39.392Z,28.10
2019-06-15T09:34:18.543Z,27.90
2019-06-15T09:36:38.507Z,28.30
2019-06-15T09:39:07.850Z,28.30
2019-06-15T09:41:36.676Z,28.50
2019-06-15T09:44:05.436Z,28.50
2019-06-15T09:46:34.169Z,27.60
2019-06-15T09:49:02.915Z,26.90
2019-06-15T09:51:31.627Z,26.10
2019-06-15T09:54:00.342Z,25.30
2019-06-15T09:56:29.138Z,24.80
2019-06-15T09:58:57.802Z,24.60
2019-06-15T10:01:26.527Z,24.60
2019-06-15T10:03:55.291Z,24.40
2019-06-15T10:06:24.022Z,24.20
2019-06-15T10:08:52.815Z,24.10
2019-06-15T10:11:21.492Z,24.20
2019-06-15T10:13:50.261Z,24.30
2019-06-15T10:16:18.976Z,24.30
2019-06-15T10:18:47.768Z,24.10
2019-06-15T10:21:16.480Z,24.00
2019-06-15T10:23:45.224Z,24.00
2019-06-15T10:26:13.993Z,24.00
2019-06-15T10:28:42.799Z,24.80
2019-06-15T10:31:11.822Z,26.60
2019-06-15T10:33:40.655Z,28.50
2019-06-15T10:36:09.773Z,30.30
2019-06-15T10:38:39.019Z,31.60
2019-06-15T10:41:07.859Z,32.10
2019-06-15T10:43:36.662Z,32.10
2019-06-15T10:46:05.530Z,32.70
2019-06-15T10:48:34.316Z,32.30
2019-06-15T10:51:03.069Z,31.00
2019-06-15T10:53:31.950Z,29.20
2019-06-15T10:56:00.662Z,28.20
2019-06-15T10:58:29.427Z,28.50
2019-06-15T11:00:58.165Z,29.10
2019-06-15T11:03:26.902Z,29.30
2019-06-15T11:05:55.575Z,29.40
2019-06-15T11:08:24.369Z,29.60
2019-06-15T11:11:01.827Z,30.20
2019-06-15T11:13:30.576Z,29.60
2019-06-15T11:15:59.661Z,28.80
2019-06-15T11:18:28.547Z,28.10
2019-06-15T11:20:58.929Z,28.00
2019-06-15T11:23:27.628Z,28.10
2019-06-15T11:25:56.441Z,27.50
2019-06-15T11:28:25.199Z,27.30
2019-06-15T11:30:53.862Z,27.30
2019-06-15T11:33:22.628Z,27.60
2019-06-15T11:35:51.356Z,28.00
2019-06-15T11:38:20.112Z,27.90
2019-06-15T11:40:48.943Z,28.00
2019-06-15T11:43:17.609Z,27.90
2019-06-15T11:45:47.354Z,27.90
2019-06-15T11:48:16.140Z,27.20
2019-06-15T11:50:44.771Z,26.90
2019-06-15T11:53:13.569Z,26.70
2019-06-15T11:55:42.372Z,26.40
2019-06-15T11:58:11.160Z,26.10
2019-06-15T12:00:41.578Z,25.80
2019-06-15T12:03:10.989Z,26.00
2019-06-15T12:05:39.780Z,26.60
2019-06-15T12:08:08.519Z,26.50
2019-06-15T12:10:37.259Z,26.40
2019-06-15T12:13:06.020Z,26.60
2019-06-15T12:15:36.365Z,27.20
2019-06-15T12:18:05.223Z,27.40
2019-06-15T12:20:34.457Z,27.30
2019-06-15T12:23:03.169Z,27.30
2019-06-15T12:25:31.983Z,27.50
2019-06-15T12:28:00.693Z,27.90
2019-06-15T12:30:45.925Z,27.90
2019-06-15T12:33:07.975Z,27.50
2019-06-15T12:35:45.464Z,26.90
2019-06-15T12:38:14.194Z,26.70
2019-06-15T12:40:45.992Z,26.30
2019-06-15T12:43:14.995Z,26.20
2019-06-15T12:45:43.817Z,26.00
2019-06-15T12:48:12.530Z,26.10
2019-06-15T12:50:41.312Z,26.10
2019-06-15T12:53:10.141Z,25.60
2019-06-15T12:55:38.841Z,25.30
2019-06-15T12:58:07.601Z,25.30
2019-06-15T13:00:38.051Z,25.30
2019-06-15T13:03:07.122Z,25.40
2019-06-15T13:05:35.968Z,25.30
2019-06-15T13:08:05.003Z,25.00
2019-06-15T13:10:33.744Z,25.10
2019-06-15T13:13:02.462Z,25.10
2019-06-15T13:15:31.233Z,25.20
2019-06-15T13:18:01.183Z,25.40
2019-06-15T13:20:30.335Z,25.40
2019-06-15T13:22:59.736Z,25.50
2019-06-15T13:25:28.387Z,25.30
2019-06-15T13:27:57.149Z,25.30
2019-06-15T13:30:26.087Z,25.10
2019-06-15T13:32:54.828Z,24.90
2019-06-15T13:35:23.592Z,25.10
2019-06-15T13:37:52.324Z,25.20
2019-06-15T13:40:21.174Z,25.30
2019-06-15T13:42:49.983Z,25.30
2019-06-15T13:45:18.922Z,25.30
2019-06-15T13:47:47.707Z,25.20
2019-06-15T13:50:16.552Z,25.10
2019-06-15T13:52:45.402Z,25.10
2019-06-15T13:55:14.244Z,25.40
2019-06-15T13:57:42.999Z,25.40
2019-06-15T14:00:12.733Z,25.40
2019-06-15T14:02:41.543Z,25.00
2019-06-15T14:05:10.534Z,24.90
2019-06-15T14:07:39.286Z,24.80
2019-06-15T14:10:08.026Z,24.70
2019-06-15T14:12:36.742Z,24.70
2019-06-15T14:15:09.440Z,24.60
2019-06-15T14:17:41.182Z,24.60
2019-06-15T14:20:10.410Z,24.40
2019-06-15T14:22:39.172Z,24.40
2019-06-15T14:25:08.085Z,24.40
2019-06-15T14:27:36.832Z,24.40
2019-06-15T14:30:09.368Z,24.60
2019-06-15T14:32:38.168Z,24.80
2019-06-15T14:35:08.123Z,25.00
2019-06-15T14:37:36.893Z,25.20
2019-06-15T14:40:06.527Z,25.20
2019-06-15T14:42:37.005Z,25.30
2019-06-15T14:45:07.215Z,25.30
2019-06-15T14:47:35.945Z,25.10
2019-06-15T14:50:06.543Z,25.10
2019-06-15T14:52:35.331Z,25.20
2019-06-15T14:55:04.066Z,25.10
2019-06-15T14:57:32.836Z,25.10
2019-06-15T15:00:05.873Z,25.00
2019-06-15T15:02:32.024Z,24.90
2019-06-15T15:05:00.796Z,24.90
2019-06-15T15:07:29.578Z,24.90
2019-06-15T15:10:01.042Z,24.80
2019-06-15T15:12:29.816Z,24.70
2019-06-15T15:14:58.606Z,24.60
2019-06-15T15:17:27.332Z,24.50
2019-06-15T15:19:57.297Z,24.40
2019-06-15T15:22:26.995Z,24.40
2019-06-15T15:24:56.584Z,24.50
2019-06-15T15:27:26.972Z,24.60
2019-06-15T15:29:57.100Z,24.50
2019-06-15T15:32:31.100Z,24.50
2019-06-15T15:34:56.546Z,24.50
2019-06-15T15:37:26.799Z,24.50
2019-06-15T15:39:56.568Z,24.50
2019-06-15T15:42:26.745Z,24.40
2019-06-15T15:44:56.473Z,24.40
2019-06-15T15:47:27.562Z,24.30
2019-06-15T15:49:57.575Z,24.30
2019-06-15T15:52:26.849Z,24.30
2019-06-15T15:54:56.535Z,24.30
2019-06-15T15:57:26.701Z,24.10
2019-06-15T15:59:56.359Z,24.10
2019-06-15T16:02:35.710Z,24.10
2019-06-15T16:04:57.601Z,24.20
2019-06-15T16:07:27.699Z,24.10
2019-06-15T16:09:56.754Z,24.00
2019-06-15T16:12:25.493Z,24.10
2019-06-15T16:14:56.352Z,24.10
2019-06-15T16:17:26.775Z,24.00
2019-06-15T16:19:56.398Z,24.00
2019-06-15T16:22:26.360Z,24.00
2019-06-15T16:24:56.471Z,23.90
2019-06-15T16:27:26.583Z,23.70
2019-06-15T16:29:56.984Z,23.60
2019-06-15T16:32:26.379Z,23.50
2019-06-15T16:34:55.309Z,23.50
2019-06-15T16:37:26.000Z,23.50
2019-06-15T16:39:54.394Z,23.50
2019-06-15T16:42:23.159Z,23.40
2019-06-15T16:44:51.930Z,23.40
2019-06-15T16:47:20.816Z,23.40
2019-06-15T16:49:49.547Z,23.30
2019-06-15T16:52:18.295Z,23.30
2019-06-15T16:54:47.122Z,23.20
2019-06-15T16:57:16.146Z,23.20
2019-06-15T16:59:46.801Z,23.10
2019-06-15T17:02:17.260Z,23.10
2019-06-15T17:04:46.735Z,23.10
2019-06-15T17:07:17.447Z,23.10
2019-06-15T17:09:46.501Z,23.20
2019-06-15T17:12:16.887Z,23.20
2019-06-15T17:14:46.433Z,23.20
2019-06-15T17:17:17.331Z,23.20
2019-06-15T17:19:46.783Z,23.10
2019-06-15T17:22:21.075Z,23.10
2019-06-15T17:24:46.221Z,23.20
2019-06-15T17:27:16.923Z,23.20
2019-06-15T17:29:46.893Z,23.10
2019-06-15T17:32:17.148Z,23.10
2019-06-15T17:34:46.963Z,23.10
2019-06-15T17:37:17.277Z,23.10
2019-06-15T17:39:46.679Z,23.00
2019-06-15T17:42:16.440Z,23.00
2019-06-15T17:44:46.214Z,22.90
2019-06-15T17:47:16.966Z,22.90
2019-06-15T17:49:46.858Z,22.80
2019-06-15T17:52:16.888Z,22.80
2019-06-15T17:54:46.628Z,22.70
2019-06-15T17:57:18.427Z,22.50
2019-06-15T17:59:47.173Z,22.40
2019-06-15T18:02:17.110Z,22.40
2019-06-15T18:04:47.537Z,22.30
2019-06-15T18:07:17.100Z,22.20
2019-06-15T18:09:46.575Z,22.10
2019-06-15T18:12:16.216Z,22.10
2019-06-15T18:14:46.423Z,21.90
2019-06-15T18:17:17.193Z,21.90
2019-06-15T18:19:46.969Z,21.90
2019-06-15T18:22:17.245Z,21.90
2019-06-15T18:24:46.656Z,21.90
2019-06-15T18:27:18.690Z,21.80
2019-06-15T18:29:47.426Z,21.80
2019-06-15T18:32:17.080Z,21.70
2019-06-15T18:34:46.724Z,21.70
2019-06-15T18:37:17.303Z,21.70
2019-06-15T18:39:46.790Z,21.60
2019-06-15T18:42:16.433Z,21.60
2019-06-15T18:44:47.647Z,21.50
2019-06-15T18:47:16.513Z,21.40
2019-06-15T18:49:47.311Z,21.40
2019-06-15T18:52:17.081Z,21.30
2019-06-15T18:54:46.746Z,21.20
2019-06-15T18:57:17.582Z,21.20
2019-06-15T18:59:47.387Z,21.10
2019-06-15T19:02:16.329Z,21.10
2019-06-15T19:04:45.026Z,21.00
2019-06-15T19:07:16.057Z,21.00
2019-06-15T19:09:46.443Z,21.00
2019-06-15T19:12:16.947Z,20.90
2019-06-15T19:14:46.917Z,20.80
2019-06-15T19:17:16.530Z,20.70
2019-06-15T19:19:46.783Z,20.70
2019-06-15T19:22:17.370Z,20.60
2019-06-15T19:24:50.317Z,20.50
2019-06-15T19:27:16.623Z,20.40
2019-06-15T19:29:46.595Z,20.40
2019-06-15T19:32:17.251Z,20.30
2019-06-15T19:34:50.398Z,20.10
2019-06-15T19:37:16.889Z,19.90
2019-06-15T19:39:46.355Z,19.80
2019-06-15T19:42:15.612Z,19.70
2019-06-15T19:44:44.283Z,19.50
2019-06-15T19:47:16.323Z,19.50
2019-06-15T19:49:46.705Z,19.20
2019-06-15T19:52:16.856Z,19.00
2019-06-15T19:54:45.626Z,18.90
2019-06-15T19:57:16.943Z,18.80
2019-06-15T19:59:44.694Z,18.80
2019-06-15T20:02:16.784Z,18.60
2019-06-15T20:04:59.053Z,18.50
2019-06-15T20:07:17.219Z,18.40
2019-06-15T20:09:46.335Z,18.40
2019-06-15T20:12:20.972Z,18.30
2019-06-15T20:14:46.254Z,18.10
2019-06-15T20:17:17.438Z,18.00
2019-06-15T20:19:46.484Z,17.80
2019-06-15T20:22:17.596Z,17.70
2019-06-15T20:24:47.394Z,17.60
2019-06-15T20:27:16.396Z,17.50
2019-06-15T20:29:47.510Z,17.50
2019-06-15T20:32:17.316Z,17.50
2019-06-15T20:34:46.421Z,17.50
2019-06-15T20:37:16.846Z,17.40
2019-06-15T20:39:46.865Z,17.50
2019-06-15T20:42:16.420Z,17.50
2019-06-15T20:44:46.184Z,17.60
2019-06-15T20:47:15.204Z,17.60
2019-06-15T20:49:46.270Z,17.50
2019-06-15T20:52:16.464Z,17.40
2019-06-15T20:54:46.405Z,17.30
2019-06-15T20:57:16.511Z,17.00
2019-06-15T20:59:47.400Z,16.80
2019-06-15T21:02:16.326Z,16.70
2019-06-15T21:04:45.063Z,16.70
2019-06-15T21:07:16.047Z,16.60
2019-06-15T21:09:46.629Z,16.40
2019-06-15T21:12:16.054Z,16.30
2019-06-15T21:14:46.947Z,16.30
2019-06-15T21:17:15.312Z,16.30
2019-06-15T21:19:46.572Z,16.30
2019-06-15T21:22:16.795Z,16.30
2019-06-15T21:24:46.391Z,16.40
2019-06-15T21:27:16.665Z,16.40
2019-06-15T21:29:45.525Z,16.50
2019-06-15T21:32:14.395Z,16.50
2019-06-15T21:34:43.049Z,16.50
2019-06-15T21:37:11.798Z,16.30
2019-06-15T21:39:40.479Z,16.10
2019-06-15T21:42:09.321Z,15.90
2019-06-15T21:44:37.972Z,15.90
2019-06-15T21:47:07.024Z,15.90
2019-06-15T21:49:35.958Z,16.00
2019-06-15T21:52:06.920Z,16.00
2019-06-15T21:54:36.014Z,16.00
2019-06-15T21:57:07.037Z,15.90
2019-06-15T21:59:37.140Z,15.80
2019-06-15T22:02:06.977Z,15.90
2019-06-15T22:04:36.775Z,15.90
2019-06-15T22:07:06.501Z,15.80
2019-06-15T22:09:36.381Z,15.90
2019-06-15T22:12:06.949Z,15.90
2019-06-15T22:14:35.921Z,15.80
2019-06-15T22:17:06.791Z,15.70
2019-06-15T22:19:36.849Z,15.70
2019-06-15T22:22:07.614Z,15.60
2019-06-15T22:24:36.286Z,15.50
2019-06-15T22:27:06.605Z,15.60
2019-06-15T22:29:36.492Z,15.70
2019-06-15T22:32:06.923Z,15.80
2019-06-15T22:34:36.319Z,15.70
2019-06-15T22:37:06.855Z,15.70
2019-06-15T22:39:37.040Z,15.70
2019-06-15T22:42:06.934Z,15.60
2019-06-15T22:44:37.253Z,15.50
2019-06-15T22:47:06.928Z,15.50
2019-06-15T22:49:36.012Z,15.50
2019-06-15T22:52:06.524Z,15.40
2019-06-15T22:54:37.678Z,15.30
2019-06-15T22:57:06.270Z,15.20
2019-06-15T22:59:35.331Z,15.20
2019-06-15T23:02:04.166Z,15.20
2019-06-15T23:04:32.855Z,15.30
2019-06-15T23:07:41.046Z,15.10
2019-06-15T23:09:36.539Z,15.10
2019-06-15T23:12:07.166Z,15.00
2019-06-15T23:14:37.293Z,15.10
2019-06-15T23:17:07.328Z,15.20
2019-06-15T23:19:36.183Z,15.30
2019-06-15T23:22:07.621Z,15.20
2019-06-15T23:24:36.321Z,15.00
2019-06-15T23:27:06.849Z,14.90
2019-06-15T23:29:36.829Z,14.90
2019-06-15T23:32:06.279Z,14.90
2019-06-15T23:34:35.192Z,15.00
2019-06-15T23:37:06.710Z,15.00
2019-06-15T23:39:36.133Z,15.00
2019-06-15T23:42:06.131Z,15.00
2019-06-15T23:44:36.107Z,15.00
2019-06-15T23:47:06.140Z,14.90
2019-06-15T23:49:36.654Z,14.80
2019-06-15T23:52:06.777Z,14.70
2019-06-15T23:54:37.036Z,14.70
2019-06-15T23:57:06.402Z,14.70
2019-06-15T23:59:37.169Z,14.80
